createdAt,value
2022-12-08T00:04:18.754Z,2.00
2022-12-08T00:09:25.956Z,1.90
2022-12-08T00:14:40.175Z,2.28
2022-12-08T00:19:51.143Z,1.95
2022-12-08T00:24:58.588Z,3.28
2022-12-08T00:30:06.784Z,1.60
2022-12-08T00:35:11.963Z,1.25
2022-12-08T00:40:19.157Z,2.15
2022-12-08T00:45:26.409Z,1.23
2022-12-08T00:50:35.602Z,1.38
2022-12-08T00:55:40.814Z,1.55
2022-12-08T01:00:48.014Z,1.23
2022-12-08T01:05:54.180Z,1.85
2022-12-08T01:10:59.388Z,1.50
2022-12-08T01:16:06.579Z,1.27
2022-12-08T01:21:12.767Z,1.33
2022-12-08T01:26:23.737Z,2.28
2022-12-08T01:31:34.567Z,3.20
2022-12-08T01:36:40.419Z,2.55
2022-12-08T01:42:04.838Z,2.30
2022-12-08T01:47:11.917Z,2.45
2022-12-08T01:52:25.093Z,1.77
2022-12-08T01:57:36.336Z,2.55
2022-12-08T02:02:52.583Z,1.50
2022-12-08T02:07:58.779Z,1.35
2022-12-08T02:13:04.922Z,1.45
2022-12-08T02:18:34.211Z,1.45
2022-12-08T02:23:53.358Z,1.08
2022-12-08T02:29:16.972Z,1.67
2022-12-08T02:34:40.838Z,0.95
2022-12-08T02:39:55.218Z,1.42
2022-12-08T02:45:06.502Z,1.60
2022-12-08T02:50:16.722Z,1.17
2022-12-08T02:55:36.889Z,1.00
2022-12-08T03:00:56.134Z,1.88
2022-12-08T03:06:19.545Z,0.82
2022-12-08T03:11:27.681Z,2.03
2022-12-08T03:16:40.182Z,0.50
2022-12-08T03:21:51.088Z,1.65
2022-12-08T03:27:00.295Z,0.98
2022-12-08T03:32:13.490Z,0.85
2022-12-08T03:37:24.716Z,0.82
2022-12-08T03:42:28.758Z,0.90
2022-12-08T03:47:33.068Z,0.60
2022-12-08T03:52:39.275Z,2.20
2022-12-08T03:57:45.507Z,1.08
2022-12-08T04:02:49.684Z,0.80
2022-12-08T04:08:02.945Z,0.60
2022-12-08T04:13:07.030Z,0.95
2022-12-08T04:18:13.246Z,0.88
2022-12-08T04:23:21.215Z,2.45
2022-12-08T04:28:31.702Z,1.05
2022-12-08T04:33:38.838Z,1.20
2022-12-08T04:38:48.087Z,1.00
2022-12-08T04:43:54.255Z,1.00
2022-12-08T04:48:58.490Z,2.45
2022-12-08T04:54:04.661Z,1.20
2022-12-08T04:59:09.046Z,0.88
2022-12-08T05:04:13.948Z,1.33
2022-12-08T05:09:23.245Z,0.63
2022-12-08T05:14:27.425Z,2.53
2022-12-08T05:19:32.197Z,0.87
2022-12-08T05:24:47.054Z,0.75
2022-12-08T05:35:04.094Z,1.45
2022-12-08T05:40:12.452Z,1.23
2022-12-08T05:45:19.635Z,1.35
2022-12-08T05:50:28.860Z,1.10
2022-12-08T05:55:37.038Z,1.00
2022-12-08T06:00:42.993Z,3.28
2022-12-08T06:05:51.306Z,0.90
2022-12-08T06:11:02.718Z,1.58
2022-12-08T06:16:11.936Z,0.90
2022-12-08T06:21:24.089Z,0.68
2022-12-08T06:26:37.304Z,0.77
2022-12-08T06:31:43.867Z,0.70
2022-12-08T06:36:49.683Z,0.82
2022-12-08T06:42:13.954Z,0.90
2022-12-08T06:47:26.047Z,0.90
2022-12-08T06:52:33.184Z,0.95
2022-12-08T06:57:38.535Z,1.95
2022-12-08T07:02:45.026Z,0.60
2022-12-08T07:07:58.740Z,2.13
2022-12-08T07:13:05.175Z,0.82
2022-12-08T07:18:09.351Z,1.33
2022-12-08T07:23:14.558Z,1.30
2022-12-08T07:28:39.787Z,1.50
2022-12-08T07:33:44.989Z,0.90
2022-12-08T07:38:54.185Z,0.75
2022-12-08T07:44:01.359Z,0.80
2022-12-08T07:49:05.555Z,1.10
2022-12-08T07:54:14.790Z,1.87
2022-12-08T07:59:21.971Z,2.38
2022-12-08T08:04:29.204Z,1.05
2022-12-08T08:09:36.367Z,0.82
2022-12-08T08:14:43.537Z,1.05
2022-12-08T08:19:48.737Z,1.27
2022-12-08T08:24:58.957Z,0.80
2022-12-08T08:30:09.440Z,1.50
2022-12-08T08:35:19.354Z,1.30
2022-12-08T08:40:29.440Z,1.20
2022-12-08T08:45:37.633Z,0.85
2022-12-08T08:50:44.495Z,0.77
2022-12-08T08:55:51.043Z,1.25
2022-12-08T09:00:58.243Z,1.88
2022-12-08T09:06:03.630Z,1.17
2022-12-08T09:11:10.764Z,1.20
2022-12-08T09:16:19.059Z,2.10
2022-12-08T09:21:27.153Z,1.38
2022-12-08T09:26:31.322Z,2.22
2022-12-08T09:31:41.612Z,1.30
2022-12-08T09:36:46.745Z,1.80
2022-12-08T09:41:56.925Z,1.30
2022-12-08T09:47:08.335Z,1.90
2022-12-08T09:52:24.399Z,1.73
2022-12-08T09:57:28.532Z,1.40
2022-12-08T10:02:36.757Z,2.20
2022-12-08T10:07:52.095Z,1.80
2022-12-08T10:13:02.203Z,3.47
2022-12-08T10:18:25.076Z,1.52
2022-12-08T10:23:37.934Z,2.72
2022-12-08T10:28:45.144Z,1.67
2022-12-08T10:33:59.808Z,2.08
2022-12-08T10:39:06.346Z,2.88
2022-12-08T10:44:18.562Z,4.30
2022-12-08T10:49:32.792Z,1.63
2022-12-08T10:54:38.995Z,2.23
2022-12-08T10:59:46.195Z,2.05
2022-12-08T11:05:03.431Z,2.03
2022-12-08T11:10:09.610Z,2.95
2022-12-08T11:15:27.045Z,3.47
2022-12-08T11:20:41.102Z,2.58
2022-12-08T11:25:45.293Z,3.25
2022-12-08T11:30:52.490Z,2.37
2022-12-08T11:36:18.889Z,4.00
2022-12-08T11:41:30.608Z,2.05
2022-12-08T11:47:15.383Z,2.30
2022-12-08T11:52:28.612Z,2.17
2022-12-08T11:57:32.550Z,2.13
2022-12-08T12:02:42.772Z,2.87
2022-12-08T12:08:08.577Z,2.13
2022-12-08T12:13:38.860Z,2.20
2022-12-08T12:18:53.729Z,2.28
2022-12-08T12:24:04.235Z,2.80
2022-12-08T12:29:13.233Z,6.05
2022-12-08T12:34:48.866Z,3.47
2022-12-08T12:40:04.892Z,2.60
2022-12-08T12:45:43.511Z,1.50
2022-12-08T12:50:56.933Z,2.22
2022-12-08T12:56:37.221Z,2.58
2022-12-08T13:02:03.996Z,4.22
2022-12-08T13:07:07.791Z,4.32
2022-12-08T13:12:25.498Z,7.53
2022-12-08T13:17:32.066Z,7.53
2022-12-08T13:23:13.935Z,9.15
2022-12-08T13:28:28.335Z,5.10
2022-12-08T13:33:47.751Z,13.80
2022-12-08T13:39:00.920Z,16.65
2022-12-08T13:51:07.016Z,7.68
2022-12-08T14:01:16.365Z,5.00
2022-12-08T14:06:35.790Z,5.78
2022-12-08T14:17:49.751Z,8.88
2022-12-08T14:22:53.869Z,6.47
2022-12-08T14:28:04.723Z,7.40
2022-12-08T14:38:27.480Z,5.57
2022-12-08T14:43:32.311Z,7.38
2022-12-08T14:48:44.872Z,3.92
2022-12-08T14:53:55.907Z,3.88
2022-12-08T14:59:11.823Z,4.65
2022-12-08T15:04:20.330Z,4.47
2022-12-08T15:09:36.688Z,5.68
2022-12-08T15:14:43.243Z,7.43
2022-12-08T15:19:57.302Z,6.80
2022-12-08T15:25:02.449Z,12.35
2022-12-08T15:30:06.832Z,10.70
2022-12-08T15:35:15.049Z,7.85
2022-12-08T15:40:21.070Z,7.68
2022-12-08T15:45:29.668Z,7.88
2022-12-08T15:50:32.922Z,4.50
2022-12-08T15:55:39.152Z,6.82
2022-12-08T16:00:52.286Z,25.02
2022-12-08T16:06:50.796Z,24.65
2022-12-08T16:17:15.650Z,9.70
2022-12-08T16:28:12.276Z,8.93
2022-12-08T16:33:09.428Z,9.07
2022-12-08T16:38:16.280Z,6.38
2022-12-08T16:43:21.015Z,7.03
2022-12-08T16:48:24.226Z,6.10
2022-12-08T16:53:27.522Z,8.27
2022-12-08T16:58:32.136Z,7.72
2022-12-08T17:03:35.347Z,6.97
2022-12-08T17:08:41.966Z,6.28
2022-12-08T17:13:46.727Z,4.68
2022-12-08T17:18:51.145Z,6.05
2022-12-08T17:23:56.324Z,5.90
2022-12-08T17:29:03.646Z,5.80
2022-12-08T17:34:12.763Z,9.30
